createdAt,value
2023-01-30T00:01:35.050Z,100695.53
2023-01-30T00:04:03.472Z,100698.97
2023-01-30T00:06:33.180Z,100694.72
2023-01-30T00:09:01.552Z,100714.94
2023-01-30T00:11:30.224Z,100726.25
2023-01-30T00:13:58.722Z,100725.41
2023-01-30T00:16:27.177Z,100727.06
2023-01-30T00:18:55.518Z,100726.09
2023-01-30T00:21:23.836Z,100714.00
2023-01-30T00:23:53.549Z,100702.72
2023-01-30T00:26:21.854Z,100713.19
2023-01-30T00:28:50.226Z,100695.69
2023-01-30T00:31:18.569Z,100694.03
2023-01-30T00:33:46.980Z,100695.84
2023-01-30T00:36:16.418Z,100688.81
2023-01-30T00:38:47.568Z,100687.19
2023-01-30T00:41:18.818Z,100687.19
2023-01-30T00:44:05.068Z,100687.19
2023-01-30T00:46:52.474Z,100676.75
2023-01-30T00:49:21.765Z,100685.56
2023-01-30T00:51:50.501Z,100687.88
2023-01-30T00:54:19.030Z,100679.22
2023-01-30T00:56:48.728Z,100663.06
2023-01-30T00:59:17.062Z,100663.72
2023-01-30T01:01:47.351Z,100648.03
2023-01-30T01:04:16.051Z,100655.75
2023-01-30T01:06:44.496Z,100644.13
2023-01-30T01:09:14.010Z,100646.59
2023-01-30T01:11:42.374Z,100635.97
2023-01-30T01:14:12.263Z,100644.63
2023-01-30T01:16:40.897Z,100620.13
2023-01-30T01:19:09.294Z,100615.06
2023-01-30T01:21:37.654Z,100614.25
2023-01-30T01:24:07.323Z,100596.94
2023-01-30T01:26:35.727Z,100607.53
2023-01-30T01:29:38.704Z,100606.09
2023-01-30T01:32:07.049Z,100607.03
2023-01-30T01:34:35.423Z,100611.31
2023-01-30T01:37:03.756Z,100618.34
2023-01-30T01:39:45.982Z,100604.28
2023-01-30T01:42:14.591Z,100596.44
2023-01-30T01:45:18.666Z,100602.16
2023-01-30T01:47:59.692Z,100617.31
2023-01-30T01:50:32.340Z,100597.03
2023-01-30T01:53:02.868Z,100592.00
2023-01-30T01:55:32.391Z,100592.97
2023-01-30T01:58:05.776Z,100595.72
2023-01-30T02:00:35.655Z,100615.66
2023-01-30T02:03:09.028Z,100614.03
2023-01-30T02:05:42.896Z,100609.78
2023-01-30T02:08:15.347Z,100596.53
2023-01-30T02:10:52.039Z,100605.38
2023-01-30T02:13:21.188Z,100602.59
2023-01-30T02:15:51.558Z,100599.84
2023-01-30T02:18:20.870Z,100576.13
2023-01-30T02:21:18.694Z,100569.91
2023-01-30T02:24:36.252Z,100559.34
2023-01-30T02:27:20.278Z,100548.59
2023-01-30T02:30:36.526Z,100553.63
2023-01-30T02:33:17.407Z,100552.50
2023-01-30T02:35:57.222Z,100563.78
2023-01-30T02:38:37.325Z,100572.59
2023-01-30T02:41:20.902Z,100538.44
2023-01-30T02:44:00.260Z,100530.59
2023-01-30T02:46:39.721Z,100521.78
2023-01-30T02:49:12.742Z,100527.84
2023-01-30T02:51:42.481Z,100523.25
2023-01-30T02:54:13.933Z,100545.78
2023-01-30T02:56:49.949Z,100552.66
2023-01-30T02:59:23.532Z,100552.66
2023-01-30T03:02:33.402Z,100557.91
2023-01-30T03:05:31.934Z,100564.09
2023-01-30T03:08:18.780Z,100569.31
2023-01-30T03:10:56.701Z,100558.03
2023-01-30T03:13:39.000Z,100557.22
2023-01-30T03:16:14.035Z,100556.25
2023-01-30T03:18:44.891Z,100557.91
2023-01-30T03:21:17.799Z,100560.50
2023-01-30T03:23:46.885Z,100560.19
2023-01-30T03:26:21.934Z,100559.19
2023-01-30T03:28:52.814Z,100553.78
2023-01-30T03:31:22.081Z,100550.38
2023-01-30T03:33:51.844Z,100542.84
2023-01-30T03:36:20.387Z,100550.69
2023-01-30T03:38:48.953Z,100548.75
2023-01-30T03:41:18.078Z,100546.13
2023-01-30T03:43:46.428Z,100548.88
2023-01-30T03:46:16.765Z,100535.19
2023-01-30T03:48:45.115Z,100536.16
2023-01-30T03:51:15.918Z,100538.63
2023-01-30T03:53:44.458Z,100536.00
2023-01-30T03:56:13.946Z,100535.00
2023-01-30T03:58:42.353Z,100539.91
2023-01-30T04:01:18.313Z,100541.72
2023-01-30T04:03:46.764Z,100548.75
2023-01-30T04:06:17.292Z,100561.81
2023-01-30T04:08:46.500Z,100543.53
2023-01-30T04:11:27.731Z,100527.66
2023-01-30T04:13:56.110Z,100526.69
2023-01-30T04:16:28.448Z,100520.47
2023-01-30T04:19:17.067Z,100514.59
2023-01-30T04:21:46.803Z,100509.53
2023-01-30T04:24:15.157Z,100525.22
2023-01-30T04:26:43.607Z,100536.31
2023-01-30T04:29:12.206Z,100528.66
2023-01-30T04:31:44.166Z,100531.09
2023-01-30T04:34:20.901Z,100518.00
2023-01-30T04:36:50.708Z,100517.19
2023-01-30T04:39:21.163Z,100510.16
2023-01-30T04:41:50.197Z,100516.38
2023-01-30T04:44:18.728Z,100518.38
2023-01-30T04:47:22.660Z,100499.59
2023-01-30T04:49:51.106Z,100491.88
2023-01-30T04:52:20.907Z,100491.88
2023-01-30T04:54:49.318Z,100490.25
2023-01-30T04:57:19.107Z,100479.00
2023-01-30T04:59:47.581Z,100460.53
2023-01-30T05:02:17.791Z,100465.75
2023-01-30T05:04:46.187Z,100463.81
2023-01-30T05:07:14.498Z,100455.97
2023-01-30T05:09:44.229Z,100451.38
2023-01-30T05:12:12.530Z,100438.97
2023-01-30T05:14:41.413Z,100442.56
2023-01-30T05:17:09.754Z,100445.81
2023-01-30T05:19:38.258Z,100432.75
2023-01-30T05:22:06.569Z,100443.19
2023-01-30T05:24:34.844Z,100438.78
2023-01-30T05:27:04.609Z,100427.50
2023-01-30T05:29:32.914Z,100410.03
2023-01-30T05:32:01.213Z,100411.81
2023-01-30T05:34:29.719Z,100427.50
2023-01-30T05:36:58.033Z,100414.78
2023-01-30T05:39:26.459Z,100418.38
2023-01-30T05:41:54.778Z,100436.66
2023-01-30T05:44:24.524Z,100424.25
2023-01-30T05:46:52.917Z,100431.94
2023-01-30T05:49:21.587Z,100439.59
2023-01-30T05:51:52.943Z,100437.97
2023-01-30T05:54:21.234Z,100451.03
2023-01-30T05:56:50.788Z,100453.66
2023-01-30T05:59:19.565Z,100451.03
2023-01-30T06:01:49.383Z,100452.66
2023-01-30T06:04:17.667Z,100445.66
2023-01-30T06:06:45.963Z,100449.09
2023-01-30T06:09:14.250Z,100461.50
2023-01-30T06:11:42.596Z,100458.88
2023-01-30T06:14:10.925Z,100450.88
2023-01-30T06:16:39.396Z,100436.81
2023-01-30T06:19:09.623Z,100435.84
2023-01-30T06:21:37.984Z,100428.19
2023-01-30T06:24:06.882Z,100437.63
2023-01-30T06:26:35.193Z,100430.28
2023-01-30T06:29:03.496Z,100423.91
2023-01-30T06:31:31.922Z,100421.94
2023-01-30T06:34:00.272Z,100397.41
2023-01-30T06:36:30.062Z,100396.59
2023-01-30T06:38:58.382Z,100394.78
2023-01-30T06:41:29.632Z,100393.66
2023-01-30T06:43:57.964Z,100387.78
2023-01-30T06:46:26.384Z,100386.94
2023-01-30T06:48:54.704Z,100383.53
2023-01-30T06:51:23.045Z,100386.94
2023-01-30T06:53:53.420Z,100379.94
2023-01-30T06:56:21.767Z,100378.28
2023-01-30T06:58:50.103Z,100386.31
2023-01-30T07:01:18.982Z,100398.56
2023-01-30T07:03:47.447Z,100386.31
2023-01-30T07:06:15.820Z,100388.94
2023-01-30T07:08:44.420Z,100392.53
2023-01-30T07:11:14.129Z,100404.78
2023-01-30T07:13:42.443Z,100397.91
2023-01-30T07:16:10.776Z,100399.91
2023-01-30T07:18:39.125Z,100390.25
2023-01-30T07:21:07.648Z,100392.53
2023-01-30T07:23:35.969Z,100390.72
2023-01-30T07:26:05.504Z,100386.31
2023-01-30T07:28:35.139Z,100380.75
2023-01-30T07:31:03.657Z,100376.34
2023-01-30T07:33:32.014Z,100374.53
2023-01-30T07:36:00.340Z,100381.38
2023-01-30T07:38:28.657Z,100374.34
2023-01-30T07:40:59.215Z,100401.50
2023-01-30T07:43:55.064Z,100417.84
2023-01-30T07:46:24.631Z,100414.03
2023-01-30T07:48:52.958Z,100399.03
2023-01-30T07:51:21.269Z,100396.41
2023-01-30T07:53:51.912Z,100395.41
2023-01-30T07:56:21.334Z,100390.03
2023-01-30T07:58:51.545Z,100387.25
2023-01-30T08:01:19.854Z,100403.41
2023-01-30T08:03:49.493Z,100385.75
2023-01-30T08:06:18.142Z,100405.22
2023-01-30T08:08:46.698Z,100417.47
2023-01-30T08:11:15.025Z,100407.81
2023-01-30T08:13:43.393Z,100408.47
2023-01-30T08:16:13.103Z,100420.72
2023-01-30T08:18:41.504Z,100433.78
2023-01-30T08:21:10.183Z,100417.94
2023-01-30T08:23:40.251Z,100425.47
2023-01-30T08:26:08.590Z,100427.09
2023-01-30T08:28:36.906Z,100418.09
2023-01-30T08:31:12.176Z,100414.66
2023-01-30T08:33:40.579Z,100401.59
2023-01-30T08:36:10.241Z,100412.88
2023-01-30T08:38:38.617Z,100406.63
2023-01-30T08:41:08.317Z,100404.22
2023-01-30T08:43:37.111Z,100402.56
2023-01-30T08:46:05.956Z,100406.63
2023-01-30T08:48:49.109Z,100404.84
2023-01-30T08:51:18.617Z,100408.09
2023-01-30T08:53:46.891Z,100423.44
2023-01-30T08:56:15.191Z,100423.09
2023-01-30T08:58:45.624Z,100426.38
2023-01-30T09:01:14.069Z,100411.69
2023-01-30T09:03:44.111Z,100411.69
2023-01-30T09:06:12.560Z,100403.00
2023-01-30T09:08:40.863Z,100396.13
2023-01-30T09:11:09.274Z,100375.22
2023-01-30T09:13:38.816Z,100375.06
2023-01-30T09:16:08.408Z,100372.25
2023-01-30T09:18:40.832Z,100378.31
2023-01-30T09:21:12.794Z,100366.84
2023-01-30T09:23:41.505Z,100362.25
2023-01-30T09:26:09.850Z,100355.41
2023-01-30T09:28:38.188Z,100349.19
2023-01-30T09:31:06.753Z,100350.81
2023-01-30T09:33:35.167Z,100350.19
2023-01-30T09:36:03.542Z,100364.06
2023-01-30T09:38:33.260Z,100362.25
2023-01-30T09:41:22.268Z,100360.78
2023-01-30T09:44:13.483Z,100365.88
2023-01-30T09:46:49.770Z,100367.31
2023-01-30T09:49:31.342Z,100365.34
2023-01-30T09:52:14.893Z,100355.53
2023-01-30T09:54:46.600Z,100349.13
2023-01-30T09:57:21.068Z,100352.41
2023-01-30T09:59:59.548Z,100353.88
2023-01-30T10:02:44.868Z,100347.97
2023-01-30T10:05:14.215Z,100355.50
2023-01-30T10:08:01.159Z,100363.97
2023-01-30T10:10:47.323Z,100361.00
2023-01-30T10:13:37.116Z,100353.97
2023-01-30T10:16:14.418Z,100355.63
2023-01-30T10:18:57.664Z,100348.41
2023-01-30T10:21:39.918Z,100348.25
2023-01-30T10:24:30.137Z,100343.81
2023-01-30T10:27:00.146Z,100343.28
2023-01-30T10:29:33.565Z,100344.09
2023-01-30T10:32:08.640Z,100345.91
2023-01-30T10:34:41.583Z,100345.09
2023-01-30T10:37:14.700Z,100339.66
2023-01-30T10:39:55.237Z,100325.63
2023-01-30T10:42:33.280Z,100329.03
2023-01-30T10:45:12.121Z,100335.72
2023-01-30T10:47:54.929Z,100335.72
2023-01-30T10:50:30.493Z,100334.91
2023-01-30T10:53:08.006Z,100330.94
2023-01-30T10:55:43.271Z,100317.50
2023-01-30T10:58:23.633Z,100311.31
2023-01-30T11:00:57.711Z,100309.16
2023-01-30T11:03:36.567Z,100304.53
2023-01-30T11:06:08.880Z,100291.28
2023-01-30T11:08:37.962Z,100307.63
2023-01-30T11:11:27.254Z,100313.84
2023-01-30T11:14:05.598Z,100310.25
2023-01-30T11:16:44.245Z,100297.81
2023-01-30T11:19:21.934Z,100301.03
2023-01-30T11:21:53.784Z,100305.94
2023-01-30T11:24:25.010Z,100314.44
2023-01-30T11:26:53.705Z,100320.13
2023-01-30T11:29:30.479Z,100312.09
2023-01-30T11:32:04.707Z,100307.50
2023-01-30T11:34:40.087Z,100306.50
2023-01-30T11:37:25.251Z,100297.28
2023-01-30T11:39:54.524Z,100271.09
2023-01-30T11:42:30.092Z,100284.00
2023-01-30T11:45:17.284Z,100268.75
2023-01-30T11:47:58.849Z,100270.41
2023-01-30T11:50:37.075Z,100276.91
2023-01-30T11:53:31.080Z,100281.00
2023-01-30T11:56:08.498Z,100297.13
2023-01-30T11:58:40.890Z,100280.25
2023-01-30T12:01:12.137Z,100285.13
2023-01-30T12:03:49.703Z,100281.34
2023-01-30T12:06:29.586Z,100282.97
2023-01-30T12:08:58.703Z,100285.03
2023-01-30T12:11:42.260Z,100284.69
2023-01-30T12:14:24.220Z,100277.28
2023-01-30T12:17:03.731Z,100283.16
2023-01-30T12:19:55.434Z,100283.63
2023-01-30T12:22:35.072Z,100292.91
2023-01-30T12:25:12.089Z,100284.53
2023-01-30T12:27:53.980Z,100291.03
2023-01-30T12:30:30.442Z,100287.22
2023-01-30T12:33:03.938Z,100289.31
2023-01-30T12:35:50.159Z,100283.53
2023-01-30T12:38:43.082Z,100272.84
2023-01-30T12:41:31.557Z,100275.09
2023-01-30T12:44:25.437Z,100292.28
2023-01-30T12:47:13.787Z,100296.38
2023-01-30T12:50:21.157Z,100289.91
2023-01-30T12:53:13.836Z,100283.31
2023-01-30T12:55:51.533Z,100298.88
2023-01-30T12:58:23.767Z,100295.72
2023-01-30T13:01:08.399Z,100302.22
2023-01-30T13:03:43.975Z,100300.03
2023-01-30T13:06:39.446Z,100297.88
2023-01-30T13:09:27.699Z,100289.84
2023-01-30T13:12:05.109Z,100286.03
2023-01-30T13:14:42.960Z,100296.81
2023-01-30T13:17:32.910Z,100302.28
2023-01-30T13:20:06.645Z,100296.50
2023-01-30T13:22:46.447Z,100291.06
2023-01-30T13:25:25.232Z,100301.81
2023-01-30T13:27:58.502Z,100300.84
2023-01-30T13:30:28.858Z,100293.59
2023-01-30T13:33:02.481Z,100299.47
2023-01-30T13:35:37.198Z,100294.03
2023-01-30T13:38:10.399Z,100295.63
2023-01-30T13:40:43.740Z,100298.25
2023-01-30T13:43:19.985Z,100296.91
2023-01-30T13:45:51.944Z,100304.22
2023-01-30T13:48:46.871Z,100306.03
2023-01-30T13:51:29.937Z,100308.31
2023-01-30T13:54:09.880Z,100313.56
2023-01-30T13:56:44.618Z,100304.47
2023-01-30T13:59:23.924Z,100310.38
2023-01-30T14:02:19.845Z,100310.97
2023-01-30T14:04:54.474Z,100309.78
2023-01-30T14:07:29.435Z,100307.63
2023-01-30T14:10:16.552Z,100308.06
2023-01-30T14:12:48.628Z,100316.38
2023-01-30T14:15:28.907Z,100322.25
2023-01-30T14:18:07.615Z,100327.31
2023-01-30T14:20:37.759Z,100324.47
2023-01-30T14:23:08.235Z,100332.19
2023-01-30T14:25:52.293Z,100334.63
2023-01-30T14:28:51.455Z,100328.56
2023-01-30T14:31:53.814Z,100320.50
2023-01-30T14:34:51.295Z,100332.63
2023-01-30T14:37:54.854Z,100349.00
2023-01-30T14:40:43.249Z,100330.00
2023-01-30T14:43:52.294Z,100344.16
2023-01-30T14:46:54.639Z,100346.78
2023-01-30T14:49:31.244Z,100343.13
2023-01-30T14:52:00.385Z,100337.69
2023-01-30T14:54:46.149Z,100342.94
2023-01-30T14:57:24.202Z,100335.88
2023-01-30T15:00:14.863Z,100334.69
2023-01-30T15:02:53.833Z,100339.94
2023-01-30T15:05:31.653Z,100352.06
2023-01-30T15:08:08.034Z,100355.34
2023-01-30T15:10:59.308Z,100341.38
2023-01-30T15:14:07.634Z,100365.63
2023-01-30T15:17:02.976Z,100369.91
2023-01-30T15:19:59.102Z,100376.16
2023-01-30T15:22:38.547Z,100381.03
2023-01-30T15:25:42.491Z,100376.78
2023-01-30T15:28:29.995Z,100384.47
2023-01-30T15:31:11.222Z,100380.88
2023-01-30T15:33:47.730Z,100383.50
2023-01-30T15:36:24.168Z,100384.28
2023-01-30T15:39:02.130Z,100388.53
2023-01-30T15:41:33.338Z,100406.72
2023-01-30T15:44:35.091Z,100397.44
2023-01-30T15:47:23.813Z,100408.91
2023-01-30T15:49:58.370Z,100419.41
2023-01-30T15:52:40.051Z,100436.03
2023-01-30T15:55:17.334Z,100445.69
2023-01-30T15:57:51.299Z,100466.53
2023-01-30T16:00:29.070Z,100488.00
2023-01-30T16:03:00.030Z,100469.25
2023-01-30T16:05:30.224Z,100479.56
2023-01-30T16:07:59.973Z,100510.72
2023-01-30T16:10:30.494Z,100499.19
2023-01-30T16:13:04.652Z,100502.63
2023-01-30T16:15:40.230Z,100491.75
2023-01-30T16:18:28.151Z,100502.28
2023-01-30T16:21:02.572Z,100490.78
2023-01-30T16:23:35.328Z,100503.91
2023-01-30T16:26:04.776Z,100497.66
2023-01-30T16:28:33.709Z,100498.28
2023-01-30T16:31:05.331Z,100519.28
2023-01-30T16:33:37.121Z,100518.31
2023-01-30T16:36:07.256Z,100519.28
2023-01-30T16:38:44.576Z,100521.91
2023-01-30T16:41:32.190Z,100521.47
2023-01-30T16:44:18.678Z,100530.38
2023-01-30T16:46:50.964Z,100543.34
2023-01-30T16:49:24.317Z,100537.44
2023-01-30T16:52:02.720Z,100541.25
2023-01-30T16:54:33.474Z,100541.44
2023-01-30T16:57:03.869Z,100552.94
2023-01-30T16:59:35.130Z,100560.19
2023-01-30T17:02:06.526Z,100554.13
2023-01-30T17:04:41.315Z,100566.44
2023-01-30T17:07:35.084Z,100570.25
2023-01-30T17:10:03.409Z,100570.44
2023-01-30T17:12:50.746Z,100572.41
2023-01-30T17:15:34.791Z,100571.78
2023-01-30T17:18:03.685Z,100567.88
2023-01-30T17:20:42.885Z,100575.16
2023-01-30T17:23:19.334Z,100583.59
2023-01-30T17:25:50.060Z,100583.94
2023-01-30T17:28:24.119Z,100583.50
2023-01-30T17:30:52.695Z,100590.56
2023-01-30T17:33:21.115Z,100594.97
2023-01-30T17:35:49.495Z,100601.22
2023-01-30T17:38:19.218Z,100598.78
2023-01-30T17:40:47.755Z,100607.28
2023-01-30T17:43:16.148Z,100618.78
2023-01-30T17:45:44.612Z,100612.72
2023-01-30T17:48:14.199Z,100621.63
2023-01-30T17:50:42.932Z,100621.78
2023-01-30T17:53:11.294Z,100613.28
2023-01-30T17:55:41.162Z,100615.06
2023-01-30T17:58:17.110Z,100624.75
2023-01-30T18:00:45.477Z,100623.13
2023-01-30T18:03:14.657Z,100633.44
2023-01-30T18:05:46.345Z,100637.88
2023-01-30T18:08:15.027Z,100624.94
2023-01-30T18:10:44.717Z,100645.94
2023-01-30T18:13:13.218Z,100644.94
2023-01-30T18:15:41.657Z,100642.50
2023-01-30T18:18:13.261Z,100655.66
2023-01-30T18:20:41.609Z,100654.84
2023-01-30T18:23:09.974Z,100658.44
2023-01-30T18:25:38.380Z,100667.31
2023-01-30T18:28:12.121Z,100672.56
2023-01-30T18:30:40.642Z,100663.88
2023-01-30T18:33:09.026Z,100676.81
2023-01-30T18:35:39.265Z,100678.81
2023-01-30T18:38:07.614Z,100672.56
2023-01-30T18:40:35.946Z,100687.66
2023-01-30T18:43:04.342Z,100678.00
2023-01-30T18:45:34.094Z,100677.16
2023-01-30T18:48:02.940Z,100678.97
2023-01-30T18:50:31.438Z,100688.66
2023-01-30T18:52:59.804Z,100692.28
2023-01-30T18:55:28.126Z,100679.16
2023-01-30T18:57:56.578Z,100687.03
2023-01-30T19:00:25.628Z,100699.16
2023-01-30T19:02:55.617Z,100698.34
2023-01-30T19:05:24.021Z,100721.19
2023-01-30T19:07:52.368Z,100713.28
2023-01-30T19:10:21.019Z,100713.91
2023-01-30T19:13:07.074Z,100720.16
2023-01-30T19:15:36.884Z,100718.56
2023-01-30T19:18:06.772Z,100727.44
2023-01-30T19:20:35.092Z,100727.44
2023-01-30T19:23:15.701Z,100720.38
2023-01-30T19:25:44.063Z,100737.94
2023-01-30T19:28:12.394Z,100734.31
2023-01-30T19:30:40.866Z,100735.94
2023-01-30T19:33:10.560Z,100736.75
2023-01-30T19:35:40.542Z,100740.19
2023-01-30T19:38:09.036Z,100731.50
2023-01-30T19:40:42.063Z,100740.38
2023-01-30T19:43:11.826Z,100758.75
2023-01-30T19:45:40.766Z,100743.81
2023-01-30T19:48:13.271Z,100744.63
2023-01-30T19:50:41.592Z,100760.22
2023-01-30T19:53:09.969Z,100748.91
2023-01-30T19:55:38.315Z,100729.66
2023-01-30T19:58:06.670Z,100738.56
2023-01-30T20:00:35.160Z,100765.63
2023-01-30T20:03:03.514Z,100763.19
2023-01-30T20:05:33.408Z,100777.13
2023-01-30T20:08:01.944Z,100771.88
2023-01-30T20:10:30.311Z,100774.31
2023-01-30T20:12:58.613Z,100770.72
2023-01-30T20:15:27.071Z,100780.22
2023-01-30T20:17:55.518Z,100781.03
2023-01-30T20:20:23.887Z,100776.44
2023-01-30T20:22:53.575Z,100783.66
2023-01-30T20:25:21.943Z,100771.34
2023-01-30T20:27:50.403Z,100777.59
2023-01-30T20:30:22.228Z,100791.53
2023-01-30T20:32:50.770Z,100787.91
2023-01-30T20:35:19.234Z,100788.56
2023-01-30T20:37:47.605Z,100793.00
2023-01-30T20:40:18.959Z,100799.06
2023-01-30T20:42:48.790Z,100799.88
2023-01-30T20:45:17.668Z,100807.94
2023-01-30T20:47:46.423Z,100807.75
2023-01-30T20:50:14.994Z,100815.47
2023-01-30T20:52:43.776Z,100825.78
2023-01-30T20:55:12.332Z,100820.72
2023-01-30T20:57:45.290Z,100827.59
2023-01-30T21:00:14.746Z,100824.97
2023-01-30T21:02:45.613Z,100841.34
2023-01-30T21:05:14.080Z,100836.09
2023-01-30T21:07:42.457Z,100847.09
2023-01-30T21:10:12.423Z,100852.34
2023-01-30T21:12:40.951Z,100854.81
2023-01-30T21:15:11.663Z,100861.53
2023-01-30T21:17:40.100Z,100863.50
2023-01-30T21:20:09.956Z,100859.88
2023-01-30T21:22:39.135Z,100869.75
2023-01-30T21:25:13.645Z,100865.78
2023-01-30T21:27:42.256Z,100860.88
2023-01-30T21:30:13.986Z,100862.22
2023-01-30T21:32:42.599Z,100873.53
2023-01-30T21:35:11.579Z,100878.59
2023-01-30T21:37:57.996Z,100895.34
2023-01-30T21:40:43.958Z,100880.41
2023-01-30T21:43:15.340Z,100886.47
2023-01-30T21:45:45.358Z,100888.13
2023-01-30T21:48:13.904Z,100891.56
2023-01-30T21:50:42.291Z,100889.41
2023-01-30T21:53:10.772Z,100897.13
2023-01-30T21:55:39.121Z,100888.25
2023-01-30T21:58:12.664Z,100883.34
2023-01-30T22:00:41.342Z,100885.63
2023-01-30T22:03:11.310Z,100889.06
2023-01-30T22:05:39.947Z,100898.41
2023-01-30T22:08:08.357Z,100896.78
2023-01-30T22:10:36.842Z,100890.69
2023-01-30T22:13:05.263Z,100900.56
2023-01-30T22:15:34.124Z,100902.38
2023-01-30T22:18:03.974Z,100902.38
2023-01-30T22:20:33.862Z,100909.63
2023-01-30T22:23:02.318Z,100900.56
2023-01-30T22:25:30.631Z,100915.16
2023-01-30T22:27:59.049Z,100915.81
2023-01-30T22:30:27.532Z,100918.25
2023-01-30T22:32:56.360Z,100911.38
2023-01-30T22:35:24.811Z,100927.13
2023-01-30T22:37:54.592Z,100920.88
2023-01-30T22:40:23.071Z,100929.91
2023-01-30T22:42:51.474Z,100927.94
2023-01-30T22:45:20.143Z,100941.91
2023-01-30T22:47:48.720Z,100938.47
2023-01-30T22:50:18.023Z,100937.31
2023-01-30T22:52:46.538Z,100937.31
2023-01-30T22:55:16.590Z,100953.06
2023-01-30T22:57:45.031Z,100945.81
2023-01-30T23:00:17.305Z,100952.69
2023-01-30T23:02:45.805Z,100960.41
2023-01-30T23:05:14.168Z,100941.03
2023-01-30T23:07:42.659Z,100943.50
2023-01-30T23:10:14.194Z,100941.84
2023-01-30T23:13:01.573Z,100945.47
2023-01-30T23:15:29.960Z,100947.09
2023-01-30T23:18:15.844Z,100936.94
2023-01-30T23:20:44.349Z,100931.69
2023-01-30T23:23:15.676Z,100945.66
2023-01-30T23:25:44.994Z,100926.41
2023-01-30T23:28:15.108Z,100935.31
2023-01-30T23:30:43.674Z,100928.09
2023-01-30T23:33:15.089Z,100928.22
2023-01-30T23:35:45.786Z,100941.38
2023-01-30T23:38:19.089Z,100946.63
2023-01-30T23:40:49.444Z,100932.88
2023-01-30T23:43:20.507Z,100928.44
2023-01-30T23:45:48.983Z,100939.75
2023-01-30T23:48:17.503Z,100930.25
2023-01-30T23:50:45.806Z,100933.69
2023-01-30T23:53:14.260Z,100944.19
2023-01-30T23:55:52.225Z,100938.94
2023-01-30T23:58:22.117Z,100937.13
